KBIL/BIL METAR and TAF weather

Enter ICAO airport designator
Station Type Date Time Source
KBIL METAR 2021/09/20 03:53 UTC NOAA

KBIL 200353Z 00000KT 10SM SCT075 BKN120 12/07 A2996 RMK AO2 RAB41E49 SLP134 P0000 T01170067 $


Station Type Date Time Source
KBIL Decoded METAR 2021/09/20 03:53 UTC NOAA

LOGAN INTERNATIONAL AIRPORT, MT, United States (KBIL) 45-49N 108-33W 1091M
Sep 19, 2021 - 11:53 PM EDT / 2021.09.20 0353 UTC
Wind: Calm:0
Visibility: 10 mile(s):0
Sky conditions: mostly cloudy
Precipitation last hour: A trace
Temperature: 53.1 F (11.7 C)
Dew Point: 44.1 F (6.7 C)
Relative Humidity: 71%
Pressure (altimeter): 29.96 in. Hg (1014 hPa)
ob: KBIL 200353Z 00000KT 10SM SCT075 BKN120 12/07 A2996 RMK AO2 RAB41E49 SLP134 P0000 T01170067
cycle: 4

Station Type Date Time Source
KBIL TAF 2021/09/19 22:27 UTC NOAA

TAF
AMD KBIL 192224Z 1922/2018 31012G22KT P6SM VCSH SCT050 BKN100
FM200300 29011KT P6SM VCSH SCT050 BKN100
FM201500 33011KT P6SM -SHRA BKN050

Example: see airport list